Aviation Digital Data Service (ADDS)

Output produced by METARs form (0219 UTC 30 March 2015)
found at http://www.aviationweather.gov/adds/metars/
 
METAR text: KSBP 300156Z 31012KT 10SM CLR 16/09 A2998 RMK AO2 SLP153 T01610094
Conditions at: KSBP (SAN LUIS OBISPO , CA, US) observed 0156 UTC 30 March 2015
Temperature: 16.1°C (61°F)
Dewpoint: 9.4°C (49°F) [RH = 64%]
Pressure (altimeter): 29.98 inches Hg (1015.3 mb)
[Sea-level pressure: 1015.3 mb]
Winds: from the NW (310 degrees) at 14 MPH (12 knots; 6.2 m/s)
Visibility: 10 or more miles (16+ km)
Ceiling: at least 12,000 feet AGL
Clouds: sky clear below 12,000 feet AGL
Weather: no significant weather observed at this time

METAR text: KSBP 300056Z 32010KT 10SM CLR 19/08 A2998 RMK AO2 SLP151 T01890083
Conditions at: KSBP (SAN LUIS OBISPO , CA, US) observed 0056 UTC 30 March 2015
Temperature: 18.9°C (66°F)
Dewpoint: 8.3°C (47°F) [RH = 50%]
Pressure (altimeter): 29.98 inches Hg (1015.3 mb)
[Sea-level pressure: 1015.1 mb]
Winds: from the NW (320 degrees) at 12 MPH (10 knots; 5.2 m/s)
Visibility: 10 or more miles (16+ km)
Ceiling: at least 12,000 feet AGL
Clouds: sky clear below 12,000 feet AGL
Weather: no significant weather observed at this time

METAR text: KSBP 292356Z 31017KT 10SM CLR 23/07 A2997 RMK AO2 SLP147 T02280067 10267 20228 56011
Conditions at: KSBP (SAN LUIS OBISPO , CA, US) observed 2356 UTC 29 March 2015
Temperature: 22.8°C (73°F)
Dewpoint: 6.7°C (44°F) [RH = 35%]
Pressure (altimeter): 29.97 inches Hg (1015.0 mb)
[Sea-level pressure: 1014.7 mb]
Winds: from the NW (310 degrees) at 20 MPH (17 knots; 8.8 m/s)
Visibility: 10 or more miles (16+ km)
Ceiling: at least 12,000 feet AGL
Clouds: sky clear below 12,000 feet AGL
Weather: no significant weather observed at this time

METAR text: KSBP 292256Z 32016KT 10SM CLR 26/05 A2998 RMK AO2 SLP150 T02560050
Conditions at: KSBP (SAN LUIS OBISPO , CA, US) observed 2256 UTC 29 March 2015
Temperature: 25.6°C (78°F)
Dewpoint: 5.0°C (41°F) [RH = 27%]
Pressure (altimeter): 29.98 inches Hg (1015.3 mb)
[Sea-level pressure: 1015.0 mb]
Winds: from the NW (320 degrees) at 18 MPH (16 knots; 8.3 m/s)
Visibility: 10 or more miles (16+ km)
Ceiling: at least 12,000 feet AGL
Clouds: sky clear below 12,000 feet AGL
Weather: no significant weather observed at this time

METAR text: KSBP 292156Z 31013KT 10SM CLR 24/07 A3000 RMK AO2 SLP156 T02440072
Conditions at: KSBP (SAN LUIS OBISPO , CA, US) observed 2156 UTC 29 March 2015
Temperature: 24.4°C (76°F)
Dewpoint: 7.2°C (45°F) [RH = 33%]
Pressure (altimeter): 30.00 inches Hg (1016.0 mb)
[Sea-level pressure: 1015.6 mb]
Winds: from the NW (310 degrees) at 15 MPH (13 knots; 6.8 m/s)
Visibility: 10 or more miles (16+ km)
Ceiling: at least 12,000 feet AGL
Clouds: sky clear below 12,000 feet AGL
Weather: no significant weather observed at this time

METAR text: KSBP 292056Z 31016KT 10SM CLR 24/08 A3000 RMK AO2 SLP158 T02440083 58015
Conditions at: KSBP (SAN LUIS OBISPO , CA, US) observed 2056 UTC 29 March 2015
Temperature: 24.4°C (76°F)
Dewpoint: 8.3°C (47°F) [RH = 36%]
Pressure (altimeter): 30.00 inches Hg (1016.0 mb)
[Sea-level pressure: 1015.8 mb]
Winds: from the NW (310 degrees) at 18 MPH (16 knots; 8.3 m/s)
Visibility: 10 or more miles (16+ km)
Ceiling: at least 12,000 feet AGL
Clouds: sky clear below 12,000 feet AGL
Weather: no significant weather observed at this time

METAR text: KSBP 291956Z 32015KT 10SM CLR 25/10 A3002 RMK AO2 SLP164 T02500100
Conditions at: KSBP (SAN LUIS OBISPO , CA, US) observed 1956 UTC 29 March 2015
Temperature: 25.0°C (77°F)
Dewpoint: 10.0°C (50°F) [RH = 39%]
Pressure (altimeter): 30.02 inches Hg (1016.7 mb)
[Sea-level pressure: 1016.4 mb]
Winds: from the NW (320 degrees) at 17 MPH (15 knots; 7.8 m/s)
Visibility: 10 or more miles (16+ km)
Ceiling: at least 12,000 feet AGL
Clouds: sky clear below 12,000 feet AGL
Weather: no significant weather observed at this time

METAR text: KSBP 291856Z 32013KT 10SM CLR 24/10 A3004 RMK AO2 SLP170 T02390100
Conditions at: KSBP (SAN LUIS OBISPO , CA, US) observed 1856 UTC 29 March 2015
Temperature: 23.9°C (75°F)
Dewpoint: 10.0°C (50°F) [RH = 41%]
Pressure (altimeter): 30.04 inches Hg (1017.4 mb)
[Sea-level pressure: 1017.0 mb]
Winds: from the NW (320 degrees) at 15 MPH (13 knots; 6.8 m/s)
Visibility: 10 or more miles (16+ km)
Ceiling: at least 12,000 feet AGL
Clouds: sky clear below 12,000 feet AGL
Weather: no significant weather observed at this time